createdAt,value
2019-02-07T00:02:08.840Z,48.00
2019-02-07T00:04:40.379Z,48.00
2019-02-07T00:07:12.290Z,47.90
2019-02-07T00:09:43.825Z,47.90
2019-02-07T00:12:15.301Z,48.00
2019-02-07T00:14:46.796Z,48.00
2019-02-07T00:17:18.096Z,47.90
2019-02-07T00:19:50.029Z,47.90
2019-02-07T00:22:21.389Z,48.00
2019-02-07T00:24:52.958Z,48.00
2019-02-07T00:27:24.578Z,47.80
2019-02-07T00:29:55.993Z,48.60
2019-02-07T00:32:27.899Z,48.00
2019-02-07T00:34:59.558Z,48.00
2019-02-07T00:37:30.942Z,48.10
2019-02-07T00:40:02.091Z,48.10
2019-02-07T00:42:33.426Z,48.10
2019-02-07T00:45:05.583Z,48.10
2019-02-07T00:47:36.901Z,48.20
2019-02-07T00:50:08.351Z,48.10
2019-02-07T00:52:39.521Z,48.00
2019-02-07T00:55:12.303Z,48.10
2019-02-07T00:57:44.098Z,48.20
2019-02-07T01:00:18.191Z,48.20
2019-02-07T01:02:49.787Z,48.10
2019-02-07T01:05:21.565Z,48.20
2019-02-07T01:07:52.935Z,48.20
2019-02-07T01:10:24.985Z,48.20
2019-02-07T01:12:56.273Z,48.10
2019-02-07T01:15:27.869Z,48.10
2019-02-07T01:17:59.084Z,48.00
2019-02-07T01:20:30.461Z,48.00
2019-02-07T01:23:02.071Z,48.00
2019-02-07T01:25:33.507Z,48.10
2019-02-07T01:28:04.670Z,47.90
2019-02-07T01:30:36.410Z,48.10
2019-02-07T01:33:07.787Z,48.00
2019-02-07T01:35:39.397Z,48.70
2019-02-07T01:38:11.182Z,48.00
2019-02-07T01:40:42.211Z,48.00
2019-02-07T01:43:13.823Z,48.00
2019-02-07T01:45:45.039Z,47.90
2019-02-07T01:48:16.705Z,47.90
2019-02-07T01:50:48.009Z,47.80
2019-02-07T01:53:19.131Z,47.80
2019-02-07T01:55:50.591Z,47.80
2019-02-07T01:58:21.981Z,47.80
2019-02-07T02:00:53.825Z,47.80
2019-02-07T02:03:25.324Z,47.90
2019-02-07T02:05:55.041Z,48.00
2019-02-07T02:08:26.439Z,47.80
2019-02-07T02:10:57.751Z,47.90
2019-02-07T02:13:29.016Z,47.90
2019-02-07T02:16:00.325Z,47.90
2019-02-07T02:18:31.669Z,47.90
2019-02-07T02:21:10.897Z,47.90
2019-02-07T02:23:42.346Z,47.90
2019-02-07T02:26:14.221Z,47.90
2019-02-07T02:28:45.382Z,47.90
2019-02-07T02:31:17.017Z,47.80
2019-02-07T02:33:48.295Z,47.80
2019-02-07T02:36:19.567Z,47.90
2019-02-07T02:38:51.371Z,47.90
2019-02-07T02:41:22.601Z,47.80
2019-02-07T02:43:54.004Z,47.70
2019-02-07T02:46:25.347Z,47.80
2019-02-07T02:48:56.599Z,48.40
2019-02-07T02:51:28.333Z,47.80
2019-02-07T02:54:02.108Z,47.80
2019-02-07T02:56:33.441Z,47.90
2019-02-07T02:59:12.715Z,48.00
2019-02-07T03:02:05.138Z,48.00
2019-02-07T03:04:56.247Z,47.90
2019-02-07T03:07:38.855Z,47.80
2019-02-07T03:10:46.277Z,47.70
2019-02-07T03:13:38.687Z,47.80
2019-02-07T03:16:30.539Z,47.90
2019-02-07T03:19:26.567Z,47.90
2019-02-07T03:22:18.190Z,47.80
2019-02-07T03:25:23.191Z,47.80
2019-02-07T03:28:14.853Z,47.80
2019-02-07T03:31:05.336Z,47.70
2019-02-07T03:34:02.345Z,47.80
2019-02-07T03:37:07.212Z,47.70
2019-02-07T03:39:57.119Z,47.50
2019-02-07T03:42:49.659Z,47.60
2019-02-07T03:45:39.857Z,47.50
2019-02-07T03:48:41.098Z,47.60
2019-02-07T03:51:28.091Z,47.50
2019-02-07T03:54:32.949Z,47.50
2019-02-07T03:57:16.033Z,47.60
2019-02-07T04:00:08.107Z,47.60
2019-02-07T04:03:03.726Z,47.50
2019-02-07T04:05:51.244Z,47.50
2019-02-07T04:09:01.815Z,47.60
2019-02-07T04:11:49.949Z,47.40
2019-02-07T04:14:42.674Z,47.40
2019-02-07T04:17:36.580Z,47.60
2019-02-07T04:20:41.299Z,47.60
2019-02-07T04:23:33.447Z,47.50
2019-02-07T04:26:24.032Z,47.50
2019-02-07T04:29:16.257Z,47.40
2019-02-07T04:32:20.785Z,47.50
2019-02-07T04:35:07.178Z,47.30
2019-02-07T04:37:57.691Z,47.40
2019-02-07T04:40:47.382Z,47.30
2019-02-07T04:43:37.780Z,47.30
2019-02-07T04:46:27.171Z,47.30
2019-02-07T04:49:25.089Z,47.30
2019-02-07T04:52:15.515Z,47.40
2019-02-07T04:55:16.651Z,47.40
2019-02-07T04:58:11.962Z,47.40
2019-02-07T05:01:16.191Z,47.40
2019-02-07T05:04:14.472Z,47.30
2019-02-07T05:07:05.065Z,47.30
2019-02-07T05:09:50.544Z,47.20
2019-02-07T05:12:38.967Z,47.10
2019-02-07T05:15:25.490Z,47.00
2019-02-07T05:18:14.058Z,47.00
2019-02-07T05:20:58.298Z,47.00
2019-02-07T05:23:58.936Z,47.20
2019-02-07T05:26:43.593Z,47.10
2019-02-07T05:29:33.797Z,47.10
2019-02-07T05:32:24.255Z,47.00
2019-02-07T05:35:23.536Z,47.00
2019-02-07T05:38:16.442Z,47.00
2019-02-07T05:41:17.687Z,47.60
2019-02-07T05:44:09.721Z,47.00
2019-02-07T05:47:06.255Z,47.00
2019-02-07T05:50:18.879Z,47.00
2019-02-07T05:53:20.211Z,47.10
2019-02-07T05:56:12.766Z,47.10
2019-02-07T05:59:02.754Z,47.20
2019-02-07T06:02:01.423Z,47.30
2019-02-07T06:04:52.044Z,47.40
2019-02-07T06:07:42.233Z,47.30
2019-02-07T06:10:34.167Z,47.50
2019-02-07T06:13:23.425Z,47.40
2019-02-07T06:16:08.008Z,47.40
2019-02-07T06:18:58.171Z,47.40
2019-02-07T06:21:48.873Z,47.70
2019-02-07T06:24:38.558Z,47.60
2019-02-07T06:27:33.970Z,47.80
2019-02-07T06:30:33.379Z,47.80
2019-02-07T06:33:24.281Z,47.60
2019-02-07T06:36:14.984Z,47.60
2019-02-07T06:39:12.251Z,47.60
2019-02-07T06:42:03.763Z,48.30
2019-02-07T06:44:54.363Z,48.70
2019-02-07T06:47:44.553Z,49.60
2019-02-07T06:50:28.631Z,49.70
2019-02-07T06:53:26.263Z,49.90
2019-02-07T06:56:29.760Z,49.70
2019-02-07T06:59:20.050Z,49.70
2019-02-07T07:02:18.765Z,50.20
2019-02-07T07:05:02.160Z,50.00
2019-02-07T07:07:52.669Z,50.00
2019-02-07T07:10:51.145Z,50.00
2019-02-07T07:13:46.160Z,49.90
2019-02-07T07:16:35.009Z,49.80
2019-02-07T07:19:26.887Z,49.60
2019-02-07T07:22:21.737Z,49.50
2019-02-07T07:25:12.361Z,49.60
2019-02-07T07:28:04.370Z,49.60
2019-02-07T07:31:15.333Z,49.40
2019-02-07T07:34:05.746Z,49.90
2019-02-07T07:36:49.601Z,49.20
2019-02-07T07:39:53.510Z,49.10
2019-02-07T07:42:45.510Z,49.00
2019-02-07T07:45:36.742Z,49.00
2019-02-07T07:48:27.957Z,48.90
2019-02-07T07:51:17.024Z,48.80
2019-02-07T07:54:07.317Z,48.80
2019-02-07T07:56:57.497Z,48.70
2019-02-07T07:59:47.380Z,48.70
2019-02-07T08:02:39.914Z,48.50
2019-02-07T08:05:55.701Z,48.30
2019-02-07T08:08:49.257Z,48.40
2019-02-07T08:11:35.357Z,48.30
2019-02-07T08:14:35.077Z,48.20
2019-02-07T08:17:47.077Z,48.20
2019-02-07T08:20:42.541Z,48.20
2019-02-07T08:23:35.080Z,48.10
2019-02-07T08:26:33.435Z,47.90
2019-02-07T08:29:16.875Z,48.00
2019-02-07T08:32:03.671Z,47.90
2019-02-07T08:34:54.154Z,47.90
2019-02-07T08:37:43.015Z,48.00
2019-02-07T08:40:38.536Z,48.00
2019-02-07T08:43:42.763Z,47.90
2019-02-07T08:46:33.386Z,47.90
2019-02-07T08:49:32.208Z,47.80
2019-02-07T08:52:30.951Z,47.80
2019-02-07T08:55:22.675Z,47.60
2019-02-07T08:58:18.054Z,47.60
2019-02-07T09:01:22.816Z,47.60
2019-02-07T09:04:30.518Z,47.60
2019-02-07T09:07:22.983Z,47.40
2019-02-07T09:10:18.357Z,47.50
2019-02-07T09:13:08.871Z,47.40
2019-02-07T09:15:56.621Z,47.40
2019-02-07T09:18:54.794Z,47.30
2019-02-07T09:21:47.418Z,47.20
2019-02-07T09:24:47.544Z,47.40
2019-02-07T09:27:50.708Z,47.30
2019-02-07T09:30:51.492Z,47.10
2019-02-07T09:33:43.715Z,47.10
2019-02-07T09:36:48.422Z,47.10
2019-02-07T09:39:39.037Z,47.00
2019-02-07T09:45:38.483Z,46.90
2019-02-07T09:48:35.723Z,47.00
2019-02-07T09:51:24.273Z,47.00
2019-02-07T09:54:25.723Z,47.00
2019-02-07T09:57:33.224Z,46.90
2019-02-07T10:00:39.579Z,46.80
2019-02-07T10:03:30.294Z,46.70
2019-02-07T10:06:37.886Z,46.60
2019-02-07T10:09:41.085Z,46.60
2019-02-07T10:12:33.848Z,46.80
2019-02-07T10:15:16.445Z,46.60
2019-02-07T10:18:14.429Z,46.50
2019-02-07T10:21:13.012Z,46.50
2019-02-07T10:24:16.795Z,46.50
2019-02-07T10:27:07.441Z,46.50
2019-02-07T10:30:02.566Z,46.50
2019-02-07T10:32:46.865Z,46.50
2019-02-07T10:35:45.354Z,46.70
2019-02-07T10:38:33.871Z,46.60
2019-02-07T10:41:27.272Z,46.50
2019-02-07T10:44:17.350Z,46.60
2019-02-07T10:47:16.368Z,46.60
2019-02-07T10:50:03.548Z,46.50
2019-02-07T10:53:01.951Z,46.10
2019-02-07T10:55:57.062Z,46.40
2019-02-07T10:58:47.947Z,46.50
2019-02-07T11:01:38.259Z,46.50
2019-02-07T11:04:22.199Z,46.40
2019-02-07T11:07:14.231Z,46.50
2019-02-07T11:09:56.139Z,46.50
2019-02-07T11:12:48.447Z,46.20
2019-02-07T11:15:50.939Z,46.10
2019-02-07T11:18:55.279Z,46.10
2019-02-07T11:21:43.066Z,46.20
2019-02-07T11:24:28.415Z,45.80
2019-02-07T11:27:18.667Z,46.00
2019-02-07T11:30:03.942Z,46.10
2019-02-07T11:33:05.630Z,46.10
2019-02-07T11:35:58.348Z,46.10
2019-02-07T11:38:48.437Z,46.20
2019-02-07T11:41:39.051Z,46.20
2019-02-07T11:44:37.603Z,46.10
2019-02-07T11:47:36.331Z,46.10
2019-02-07T11:50:26.119Z,46.00
2019-02-07T11:53:16.051Z,45.90
2019-02-07T11:56:06.774Z,45.90
2019-02-07T11:59:06.610Z,45.80
2019-02-07T12:02:09.220Z,45.90
2019-02-07T12:05:00.505Z,46.00
2019-02-07T12:07:49.727Z,46.00
2019-02-07T12:10:40.867Z,45.90
2019-02-07T12:13:33.211Z,46.00
2019-02-07T12:16:26.777Z,46.10
2019-02-07T12:19:19.019Z,46.00
2019-02-07T12:22:09.309Z,46.10
2019-02-07T12:25:09.310Z,46.10
2019-02-07T12:28:16.909Z,46.10
2019-02-07T12:31:12.233Z,46.20
2019-02-07T12:33:58.503Z,46.10
2019-02-07T12:36:56.607Z,46.10
2019-02-07T12:40:07.620Z,46.00
2019-02-07T12:42:58.314Z,46.00
2019-02-07T12:45:57.194Z,46.10
2019-02-07T12:48:47.380Z,46.10
2019-02-07T12:51:31.632Z,46.20
2019-02-07T12:54:32.669Z,46.30
2019-02-07T12:57:16.402Z,46.40
2019-02-07T13:00:18.479Z,46.50
2019-02-07T13:03:29.760Z,46.50
2019-02-07T13:06:20.660Z,46.50
2019-02-07T13:09:11.714Z,46.50
2019-02-07T13:11:56.810Z,46.50
2019-02-07T13:14:52.379Z,46.60
2019-02-07T13:17:38.859Z,46.50
2019-02-07T13:20:37.844Z,46.70
2019-02-07T13:23:27.843Z,46.70
2019-02-07T13:26:26.344Z,46.70
2019-02-07T13:29:21.258Z,46.60
2019-02-07T13:32:10.491Z,46.60
2019-02-07T13:34:52.312Z,46.60
2019-02-07T13:37:37.192Z,46.60
2019-02-07T13:40:27.241Z,46.60
2019-02-07T13:43:29.211Z,46.60
2019-02-07T13:46:26.973Z,46.50
2019-02-07T13:49:19.721Z,46.60
2019-02-07T13:52:15.134Z,46.50
2019-02-07T13:55:04.093Z,46.30
2019-02-07T13:57:59.217Z,45.80
2019-02-07T14:00:51.743Z,45.50
2019-02-07T14:03:54.239Z,45.10
2019-02-07T14:06:46.565Z,44.60
2019-02-07T14:09:37.363Z,44.40
2019-02-07T14:12:32.787Z,44.50
2019-02-07T14:15:40.703Z,44.60
2019-02-07T14:18:38.860Z,44.70
2019-02-07T14:21:46.973Z,44.50
2019-02-07T14:24:32.356Z,44.30
2019-02-07T14:27:21.505Z,44.20
2019-02-07T14:30:11.805Z,44.30
2019-02-07T14:33:04.166Z,44.40
2019-02-07T14:35:54.339Z,44.50
2019-02-07T14:38:53.091Z,44.80
2019-02-07T14:41:54.381Z,45.00
2019-02-07T14:44:46.925Z,45.30
2019-02-07T14:47:18.573Z,45.50
2019-02-07T14:49:50.038Z,45.60
2019-02-07T14:52:21.792Z,45.60
2019-02-07T14:54:53.191Z,45.80
2019-02-07T14:57:24.751Z,45.80
2019-02-07T15:00:09.794Z,45.90
2019-02-07T15:02:41.367Z,45.90
2019-02-07T15:05:20.735Z,46.00
2019-02-07T15:08:00.541Z,46.10
2019-02-07T15:10:39.977Z,46.00
2019-02-07T15:13:19.523Z,46.10
2019-02-07T15:15:51.444Z,46.10
2019-02-07T15:18:23.275Z,46.00
2019-02-07T15:20:54.845Z,45.90
2019-02-07T15:23:32.009Z,45.90
2019-02-07T15:26:11.655Z,45.90
2019-02-07T15:28:42.917Z,46.00
2019-02-07T15:31:14.445Z,45.90
2019-02-07T15:33:45.925Z,45.80
2019-02-07T15:36:17.411Z,45.90
2019-02-07T15:38:48.627Z,45.90
2019-02-07T15:41:28.085Z,45.90
2019-02-07T15:43:59.340Z,45.90
2019-02-07T15:46:38.592Z,45.90
2019-02-07T15:49:09.939Z,45.90
2019-02-07T15:51:41.375Z,46.00
2019-02-07T15:54:13.335Z,46.10
2019-02-07T15:56:44.778Z,46.10
2019-02-07T15:59:24.985Z,46.00
2019-02-07T16:02:01.697Z,46.00
2019-02-07T16:04:37.152Z,45.90
2019-02-07T16:07:08.896Z,45.90
2019-02-07T16:09:40.421Z,45.90
2019-02-07T16:12:22.077Z,46.00
2019-02-07T16:14:53.668Z,46.00
2019-02-07T16:17:33.226Z,46.10
2019-02-07T16:20:05.722Z,45.90
2019-02-07T16:22:37.262Z,45.80
2019-02-07T16:25:10.197Z,45.90
2019-02-07T16:27:41.553Z,45.90
2019-02-07T16:30:14.387Z,46.00
2019-02-07T16:32:45.705Z,46.00
2019-02-07T16:35:17.355Z,46.00
2019-02-07T16:37:48.775Z,45.90
2019-02-07T16:40:21.968Z,46.00
2019-02-07T16:43:01.150Z,45.90
2019-02-07T16:45:32.601Z,45.90
2019-02-07T16:48:06.581Z,45.90
2019-02-07T16:50:38.443Z,45.90
2019-02-07T16:53:09.916Z,45.80
2019-02-07T16:55:41.846Z,46.00
2019-02-07T16:58:13.533Z,46.00
2019-02-07T17:00:45.188Z,46.00
2019-02-07T17:03:17.003Z,45.90
2019-02-07T17:05:48.415Z,45.80
2019-02-07T17:08:19.921Z,45.90
2019-02-07T17:10:51.332Z,45.90
2019-02-07T17:13:23.294Z,46.10
2019-02-07T17:15:54.961Z,47.10
2019-02-07T17:18:26.452Z,46.80
2019-02-07T17:20:58.077Z,47.20
2019-02-07T17:23:37.565Z,47.90
2019-02-07T17:26:16.975Z,48.20
2019-02-07T17:28:48.433Z,48.00
2019-02-07T17:31:19.898Z,48.00
2019-02-07T17:33:51.377Z,47.90
2019-02-07T17:36:22.903Z,48.20
2019-02-07T17:38:54.289Z,48.20
2019-02-07T17:41:25.696Z,48.10
2019-02-07T17:43:57.254Z,48.10
2019-02-07T17:46:36.581Z,48.00
2019-02-07T17:49:16.177Z,47.90
2019-02-07T17:51:56.003Z,47.80
2019-02-07T17:54:35.669Z,47.80
2019-02-07T17:57:07.210Z,47.90
2019-02-07T17:59:38.949Z,47.80
2019-02-07T18:02:18.704Z,47.80
2019-02-07T18:04:50.050Z,47.80
2019-02-07T18:07:21.836Z,48.30
2019-02-07T18:09:53.390Z,47.90
2019-02-07T18:12:24.955Z,47.90
2019-02-07T18:14:56.757Z,47.90
2019-02-07T18:17:36.347Z,47.90
2019-02-07T18:20:17.079Z,47.80
2019-02-07T18:22:56.635Z,47.80
2019-02-07T18:25:28.071Z,47.60
2019-02-07T18:27:59.649Z,47.60
2019-02-07T18:30:31.161Z,47.50
2019-02-07T18:33:10.447Z,47.60
2019-02-07T18:35:41.938Z,47.60
2019-02-07T18:38:13.493Z,47.90
2019-02-07T18:40:45.303Z,48.00
2019-02-07T18:43:17.017Z,48.10
2019-02-07T18:45:48.513Z,48.10
2019-02-07T18:48:19.966Z,48.40
2019-02-07T18:50:51.626Z,48.40
2019-02-07T18:53:31.622Z,48.50
2019-02-07T18:56:10.984Z,48.50
2019-02-07T18:58:42.475Z,48.70
2019-02-07T19:01:13.958Z,48.80
2019-02-07T19:03:53.361Z,48.90
2019-02-07T19:06:24.677Z,49.00
2019-02-07T19:08:56.137Z,48.40
2019-02-07T19:11:27.858Z,46.10
2019-02-07T19:13:57.682Z,44.70
2019-02-07T19:16:29.260Z,43.60
2019-02-07T19:19:00.784Z,42.50
2019-02-07T19:21:33.085Z,41.50
2019-02-07T19:24:04.808Z,41.00
2019-02-07T19:26:44.020Z,40.50
2019-02-07T19:29:23.786Z,40.70
2019-02-07T19:31:55.375Z,40.90
2019-02-07T19:34:26.503Z,40.80
2019-02-07T19:36:57.997Z,40.70
2019-02-07T19:39:37.509Z,40.60
2019-02-07T19:42:10.142Z,40.50
2019-02-07T19:44:41.758Z,40.90
2019-02-07T19:47:13.339Z,41.30
2019-02-07T19:49:44.815Z,41.50
2019-02-07T19:52:16.291Z,41.60
2019-02-07T19:54:55.741Z,41.80
2019-02-07T19:57:34.913Z,42.00
2019-02-07T20:00:08.288Z,42.10
2019-02-07T20:02:40.230Z,42.80
2019-02-07T20:05:11.835Z,43.10
2019-02-07T20:07:43.281Z,43.20
2019-02-07T20:10:16.700Z,43.30
2019-02-07T20:12:47.925Z,43.40
2019-02-07T20:15:22.027Z,43.40
2019-02-07T20:18:02.477Z,43.40
2019-02-07T20:20:33.886Z,44.20
2019-02-07T20:23:13.233Z,43.60
2019-02-07T20:25:53.313Z,43.40
2019-02-07T20:28:32.503Z,43.50
2019-02-07T20:31:12.252Z,43.50
2019-02-07T20:33:51.789Z,43.80
2019-02-07T20:36:32.251Z,43.70
2019-02-07T20:39:11.495Z,43.80
2019-02-07T20:41:51.319Z,43.80
2019-02-07T20:44:22.785Z,43.80
2019-02-07T20:47:02.128Z,43.80
2019-02-07T20:49:33.525Z,44.00
2019-02-07T20:52:05.238Z,44.20
2019-02-07T20:54:36.775Z,44.10
2019-02-07T20:57:16.379Z,44.30
2019-02-07T20:59:59.492Z,45.00
2019-02-07T21:02:39.019Z,46.10
2019-02-07T21:05:18.778Z,46.30
2019-02-07T21:07:50.073Z,46.40
2019-02-07T21:10:30.359Z,47.00
2019-02-07T21:13:10.103Z,46.90
2019-02-07T21:15:41.708Z,46.90
2019-02-07T21:18:21.321Z,46.80
2019-02-07T21:21:00.867Z,46.60
2019-02-07T21:23:40.617Z,46.60
2019-02-07T21:26:19.971Z,46.70
2019-02-07T21:29:00.207Z,46.50
2019-02-07T21:31:40.290Z,46.40
2019-02-07T21:34:20.114Z,46.60
2019-02-07T21:37:02.721Z,46.40
2019-02-07T21:39:42.217Z,46.40
2019-02-07T21:42:21.747Z,46.40
2019-02-07T21:45:00.964Z,46.50
2019-02-07T21:47:40.273Z,46.30
2019-02-07T21:50:21.747Z,46.40
2019-02-07T21:53:01.687Z,46.40
2019-02-07T21:55:41.498Z,46.30
2019-02-07T21:58:22.879Z,46.30
2019-02-07T22:01:05.521Z,46.10
2019-02-07T22:03:45.037Z,46.20
2019-02-07T22:06:28.159Z,46.10
2019-02-07T22:09:13.369Z,46.10
2019-02-07T22:11:56.941Z,46.20
2019-02-07T22:14:37.110Z,46.10
2019-02-07T22:17:16.760Z,46.20
2019-02-07T22:19:56.419Z,46.30
2019-02-07T22:22:36.199Z,46.90
2019-02-07T22:25:19.091Z,46.30
2019-02-07T22:28:00.845Z,46.50
2019-02-07T22:30:43.585Z,46.40
2019-02-07T22:33:25.953Z,46.50
2019-02-07T22:36:08.302Z,46.30
2019-02-07T22:38:51.189Z,46.30
2019-02-07T22:41:24.153Z,46.30
2019-02-07T22:44:06.151Z,46.30
2019-02-07T22:46:46.037Z,46.30
2019-02-07T22:49:25.357Z,46.30
2019-02-07T22:52:08.829Z,46.30
2019-02-07T22:54:48.668Z,46.20
2019-02-07T22:57:27.936Z,46.30
2019-02-07T23:00:41.620Z,46.20
2019-02-07T23:03:23.329Z,46.20
2019-02-07T23:06:05.551Z,46.30
2019-02-07T23:08:48.567Z,46.30
2019-02-07T23:11:28.139Z,46.20
2019-02-07T23:14:08.011Z,46.10
2019-02-07T23:16:39.713Z,46.00
2019-02-07T23:19:19.020Z,46.00
2019-02-07T23:21:59.402Z,46.10
2019-02-07T23:24:39.456Z,46.80
2019-02-07T23:27:21.842Z,46.10
2019-02-07T23:30:04.879Z,46.00
2019-02-07T23:32:46.803Z,46.70
2019-02-07T23:35:29.446Z,46.00
2019-02-07T23:38:10.810Z,46.20
2019-02-07T23:40:53.135Z,45.90
2019-02-07T23:43:35.675Z,45.90
2019-02-07T23:46:18.409Z,45.90
2019-02-07T23:49:01.202Z,45.90
2019-02-07T23:51:40.795Z,45.90
2019-02-07T23:54:20.278Z,46.00
2019-02-07T23:57:02.148Z,45.90
2019-02-07T23:59:41.467Z,45.90
